createdAt,value
2023-03-04T00:01:11.240Z,52.65
2023-03-04T00:03:38.651Z,50.30
2023-03-04T00:06:08.584Z,49.40
2023-03-04T00:08:35.996Z,50.25
2023-03-04T00:11:05.797Z,49.75
2023-03-04T00:13:33.357Z,51.63
2023-03-04T00:16:00.734Z,51.83
2023-03-04T00:18:28.114Z,48.55
2023-03-04T00:20:55.444Z,49.53
2023-03-04T00:23:24.988Z,49.65
2023-03-04T00:25:52.290Z,50.08
2023-03-04T00:28:19.812Z,48.58
2023-03-04T00:30:47.229Z,50.28
2023-03-04T00:33:14.554Z,52.20
2023-03-04T00:35:41.998Z,49.20
2023-03-04T00:38:09.715Z,53.17
2023-03-04T00:40:37.057Z,51.50
2023-03-04T00:43:04.396Z,54.33
2023-03-04T00:45:31.775Z,47.63
2023-03-04T00:47:59.142Z,51.63
2023-03-04T00:50:26.438Z,48.97
2023-03-04T00:52:53.815Z,49.45
2023-03-04T00:55:21.338Z,46.90
2023-03-04T00:57:48.593Z,52.88
2023-03-04T01:00:16.488Z,50.30
2023-03-04T01:02:43.910Z,50.35
2023-03-04T01:05:14.166Z,48.10
2023-03-04T01:07:44.129Z,52.28
2023-03-04T01:10:14.099Z,50.55
2023-03-04T01:12:43.939Z,48.75
2023-03-04T01:15:14.127Z,49.58
2023-03-04T01:17:46.078Z,48.47
2023-03-04T01:20:16.626Z,53.47
2023-03-04T01:22:44.114Z,49.85
2023-03-04T01:25:11.974Z,51.85
2023-03-04T01:27:39.627Z,51.65
2023-03-04T01:30:10.500Z,49.90
2023-03-04T01:32:38.437Z,49.10
2023-03-04T01:35:06.702Z,51.78
2023-03-04T01:37:34.298Z,51.70
2023-03-04T01:40:01.683Z,50.33
2023-03-04T01:42:35.419Z,50.25
2023-03-04T01:45:04.726Z,46.88
2023-03-04T01:47:34.016Z,50.35
2023-03-04T01:50:04.709Z,49.85
2023-03-04T01:52:32.477Z,51.65
2023-03-04T01:55:00.803Z,48.03
2023-03-04T01:57:28.271Z,54.17
2023-03-04T02:00:39.315Z,49.67
2023-03-04T02:03:12.476Z,51.30
2023-03-04T02:05:43.455Z,51.10
2023-03-04T02:08:12.831Z,51.88
2023-03-04T02:10:44.787Z,55.30
2023-03-04T02:13:17.214Z,50.20
2023-03-04T02:15:46.326Z,55.33
2023-03-04T02:18:20.076Z,48.72
2023-03-04T02:21:02.983Z,55.33
2023-03-04T02:23:59.108Z,53.25
2023-03-04T02:26:31.641Z,46.95
2023-03-04T02:29:05.363Z,52.85
2023-03-04T02:31:41.472Z,54.22
2023-03-04T02:34:15.177Z,53.08
2023-03-04T02:36:46.860Z,54.38
2023-03-04T02:39:22.999Z,51.47
2023-03-04T02:41:55.604Z,51.85
2023-03-04T02:44:26.400Z,51.10
2023-03-04T02:46:57.587Z,53.83
2023-03-04T02:49:27.404Z,54.83
2023-03-04T02:52:01.804Z,49.28
2023-03-04T02:54:29.492Z,47.53
2023-03-04T02:57:07.536Z,47.53
2023-03-04T02:59:40.333Z,52.75
2023-03-04T03:02:08.845Z,50.97
2023-03-04T03:04:38.399Z,50.78
2023-03-04T03:07:09.584Z,48.20
2023-03-04T03:09:39.401Z,50.22
2023-03-04T03:12:16.237Z,48.55
2023-03-04T03:14:43.709Z,49.25
2023-03-04T03:17:11.358Z,50.70
2023-03-04T03:19:40.986Z,51.17
2023-03-04T03:22:14.010Z,46.05
2023-03-04T03:24:41.308Z,48.10
2023-03-04T03:27:08.683Z,48.03
2023-03-04T03:29:38.266Z,47.75
2023-03-04T03:32:08.267Z,46.45
2023-03-04T03:34:35.924Z,47.40
2023-03-04T03:37:03.370Z,52.72
2023-03-04T03:39:31.792Z,52.40
2023-03-04T03:41:59.075Z,48.92
2023-03-04T03:44:28.645Z,48.58
2023-03-04T03:46:55.998Z,45.92
2023-03-04T03:49:25.745Z,49.80
2023-03-04T03:51:54.774Z,50.08
2023-03-04T03:54:24.503Z,51.00
2023-03-04T03:56:51.828Z,50.70
2023-03-04T03:59:19.222Z,48.60
2023-03-04T04:01:46.563Z,52.88
2023-03-04T04:04:14.407Z,49.78
2023-03-04T04:06:41.847Z,49.63
2023-03-04T04:09:09.317Z,52.97
2023-03-04T04:11:39.947Z,52.58
2023-03-04T04:14:15.973Z,49.40
2023-03-04T04:16:43.840Z,54.63
2023-03-04T04:19:20.500Z,49.42
2023-03-04T04:21:52.938Z,53.50
2023-03-04T04:24:20.407Z,53.47
2023-03-04T04:26:47.895Z,55.25
2023-03-04T04:29:16.416Z,56.53
2023-03-04T04:31:44.249Z,53.25
2023-03-04T04:34:11.749Z,57.53
2023-03-04T04:36:39.106Z,58.05
2023-03-04T04:39:06.545Z,53.65
2023-03-04T04:41:42.489Z,53.88
2023-03-04T04:44:13.285Z,51.67
2023-03-04T04:46:40.702Z,53.47
2023-03-04T04:49:09.397Z,51.70
2023-03-04T04:51:42.722Z,52.47
2023-03-04T04:54:14.737Z,52.20
2023-03-04T04:56:44.960Z,52.90
2023-03-04T04:59:14.790Z,53.20
2023-03-04T05:01:42.220Z,49.67
2023-03-04T05:04:09.955Z,55.70
2023-03-04T05:06:41.973Z,53.70
2023-03-04T05:09:11.601Z,53.38
2023-03-04T05:11:38.957Z,55.40
2023-03-04T05:14:06.494Z,51.85
2023-03-04T05:16:33.770Z,50.83
2023-03-04T05:19:01.056Z,56.10
2023-03-04T05:21:28.338Z,53.90
2023-03-04T05:23:55.613Z,55.88
2023-03-04T05:26:25.509Z,53.45
2023-03-04T05:28:52.837Z,54.05
2023-03-04T05:31:29.114Z,54.33
2023-03-04T05:33:58.912Z,56.20
2023-03-04T05:36:30.867Z,57.30
2023-03-04T05:39:00.600Z,57.42
2023-03-04T05:41:27.980Z,56.60
2023-03-04T05:43:57.832Z,59.33
2023-03-04T05:46:27.483Z,51.83
2023-03-04T05:48:57.041Z,53.42
2023-03-04T05:51:24.590Z,57.38
2023-03-04T05:53:51.914Z,52.83
2023-03-04T05:56:24.134Z,58.00
2023-03-04T05:58:51.478Z,60.22
2023-03-04T06:01:28.541Z,54.53
2023-03-04T06:03:58.599Z,57.90
2023-03-04T06:06:26.107Z,60.77
2023-03-04T06:08:56.066Z,60.53
2023-03-04T06:11:26.626Z,55.40
2023-03-04T06:13:56.543Z,57.27
2023-03-04T06:16:32.380Z,56.57
2023-03-04T06:19:02.209Z,57.97
2023-03-04T06:21:32.012Z,59.73
2023-03-04T06:23:59.375Z,56.97
2023-03-04T06:26:26.681Z,59.33
2023-03-04T06:28:57.129Z,55.28
2023-03-04T06:31:25.229Z,60.97
2023-03-04T06:33:55.190Z,60.10
2023-03-04T06:36:22.628Z,62.35
2023-03-04T06:38:51.185Z,60.27
2023-03-04T06:41:18.678Z,59.78
2023-03-04T06:43:46.494Z,59.42
2023-03-04T06:46:14.295Z,58.70
2023-03-04T06:48:42.067Z,60.17
2023-03-04T06:51:11.355Z,61.53
2023-03-04T06:53:40.117Z,63.28
2023-03-04T06:56:14.533Z,57.65
2023-03-04T06:58:43.099Z,61.40
2023-03-04T07:01:16.181Z,60.35
2023-03-04T07:03:43.975Z,60.25
2023-03-04T07:06:12.594Z,58.58
2023-03-04T07:08:42.657Z,58.92
2023-03-04T07:11:10.903Z,60.70
2023-03-04T07:13:38.533Z,57.83
2023-03-04T07:16:13.943Z,58.53
2023-03-04T07:18:41.827Z,56.72
2023-03-04T07:21:09.542Z,58.85
2023-03-04T07:23:37.393Z,59.88
2023-03-04T07:26:05.578Z,57.38
2023-03-04T07:28:33.502Z,54.50
2023-03-04T07:31:32.779Z,56.10
2023-03-04T07:34:06.610Z,57.47
2023-03-04T07:36:37.029Z,55.20
2023-03-04T07:39:05.193Z,53.05
2023-03-04T07:41:36.262Z,56.50
2023-03-04T07:44:07.589Z,59.25
2023-03-04T07:46:36.310Z,59.85
2023-03-04T07:49:14.590Z,57.65
2023-03-04T07:51:41.965Z,54.70
2023-03-04T07:54:14.043Z,55.72
2023-03-04T07:56:47.112Z,54.30
2023-03-04T07:59:17.306Z,54.85
2023-03-04T08:01:45.744Z,52.17
2023-03-04T08:04:16.036Z,51.45
2023-03-04T08:06:44.025Z,49.17
2023-03-04T08:09:16.567Z,45.17
2023-03-04T08:11:47.385Z,49.85
2023-03-04T08:14:15.219Z,43.80
2023-03-04T08:16:47.028Z,44.33
2023-03-04T08:21:50.534Z,34.65
2023-03-04T08:24:22.485Z,36.15
2023-03-04T08:26:51.516Z,36.17
2023-03-04T08:29:21.557Z,33.38
2023-03-04T08:31:50.609Z,33.40
2023-03-04T08:34:26.019Z,31.20
2023-03-04T08:37:00.799Z,29.83
2023-03-04T08:39:35.652Z,30.38
2023-03-04T08:42:03.902Z,31.88
2023-03-04T08:44:46.032Z,31.73
2023-03-04T08:47:13.995Z,30.35
2023-03-04T08:49:58.500Z,28.02
2023-03-04T08:52:26.636Z,29.67
2023-03-04T08:54:59.410Z,29.90
2023-03-04T08:57:30.297Z,30.35
2023-03-04T09:00:02.794Z,26.73
2023-03-04T09:02:30.978Z,24.73
2023-03-04T09:05:01.850Z,24.95
2023-03-04T09:07:29.327Z,30.80
2023-03-04T09:09:56.896Z,29.23
2023-03-04T09:12:25.202Z,28.75
2023-03-04T09:15:08.392Z,28.85
2023-03-04T09:17:39.064Z,28.60
2023-03-04T09:20:10.257Z,27.85
2023-03-04T09:22:40.676Z,30.35
2023-03-04T09:25:12.903Z,30.85
2023-03-04T09:27:41.700Z,27.20
2023-03-04T09:30:16.880Z,30.00
2023-03-04T09:32:44.784Z,25.85
2023-03-04T09:35:14.701Z,27.60
2023-03-04T09:37:42.017Z,28.77
2023-03-04T09:40:16.185Z,32.45
2023-03-04T09:42:50.944Z,27.95
2023-03-04T09:45:22.097Z,26.20
2023-03-04T09:47:52.808Z,25.98
2023-03-04T09:50:21.339Z,26.10
2023-03-04T09:53:07.930Z,26.33
2023-03-04T09:55:39.428Z,23.20
2023-03-04T09:58:25.419Z,22.02
2023-03-04T10:00:58.406Z,23.60
2023-03-04T10:03:33.344Z,21.75
2023-03-04T10:06:09.895Z,22.48
2023-03-04T10:08:47.738Z,24.33
2023-03-04T10:11:17.462Z,24.90
2023-03-04T10:13:58.083Z,25.88
2023-03-04T10:16:37.629Z,21.83
2023-03-04T10:19:13.835Z,23.63
2023-03-04T10:21:52.582Z,22.85
2023-03-04T10:24:23.100Z,22.58
2023-03-04T10:26:54.905Z,23.88
2023-03-04T10:31:52.061Z,22.60
2023-03-04T10:34:19.525Z,24.95
2023-03-04T10:36:59.501Z,23.83
2023-03-04T10:39:36.555Z,22.63
2023-03-04T10:42:07.695Z,24.65
2023-03-04T10:44:38.129Z,23.85
2023-03-04T10:47:14.488Z,23.45
2023-03-04T10:50:21.832Z,23.48
2023-03-04T10:52:55.718Z,22.95
2023-03-04T10:55:29.369Z,21.33
2023-03-04T10:58:06.235Z,20.73
2023-03-04T11:00:38.029Z,21.00
2023-03-04T11:06:15.182Z,21.88
2023-03-04T11:08:47.730Z,21.65
2023-03-04T11:11:31.166Z,22.05
2023-03-04T11:14:04.931Z,22.80
2023-03-04T11:16:34.904Z,20.35
2023-03-04T11:19:18.000Z,21.75
2023-03-04T11:21:48.964Z,22.80
2023-03-04T11:24:29.558Z,22.00
2023-03-04T11:27:23.024Z,23.10
2023-03-04T11:30:17.642Z,22.45
2023-03-04T11:32:55.047Z,20.60
2023-03-04T11:35:40.040Z,20.48
2023-03-04T11:38:21.207Z,22.02
2023-03-04T11:41:13.402Z,23.35
2023-03-04T11:43:43.954Z,22.55
2023-03-04T11:46:33.198Z,22.60
2023-03-04T11:49:27.611Z,23.45
2023-03-04T11:52:35.733Z,26.85
2023-03-04T11:55:06.265Z,25.77
2023-03-04T11:58:09.869Z,27.60
2023-03-04T12:01:12.735Z,25.55
2023-03-04T12:04:15.079Z,24.50
2023-03-04T12:07:00.289Z,26.15
2023-03-04T12:09:45.786Z,27.55
2023-03-04T12:12:37.283Z,26.67
2023-03-04T12:15:10.456Z,27.08
2023-03-04T12:18:01.064Z,24.85
2023-03-04T12:20:52.820Z,26.52
2023-03-04T12:23:29.037Z,26.45
2023-03-04T12:26:30.513Z,24.85
2023-03-04T12:29:04.438Z,25.52
2023-03-04T12:31:50.881Z,25.02
2023-03-04T12:34:53.427Z,34.85
2023-03-04T12:37:20.725Z,27.70
2023-03-04T12:40:06.876Z,26.20
2023-03-04T12:43:00.156Z,25.17
2023-03-04T12:45:54.447Z,29.35
2023-03-04T12:48:43.113Z,30.67
2023-03-04T12:51:16.531Z,24.40
2023-03-04T12:53:51.661Z,24.40
2023-03-04T12:56:43.678Z,24.63
2023-03-04T12:59:23.554Z,24.60
2023-03-04T13:02:07.216Z,24.48
2023-03-04T13:05:15.414Z,24.75
2023-03-04T13:08:03.191Z,22.25
2023-03-04T13:10:30.742Z,25.75
2023-03-04T13:13:02.091Z,22.65
2023-03-04T13:15:38.885Z,25.52
2023-03-04T13:18:35.129Z,27.08
2023-03-04T13:21:26.987Z,26.65
2023-03-04T13:26:34.211Z,24.25
2023-03-04T13:29:16.674Z,25.63
2023-03-04T13:32:05.857Z,31.20
2023-03-04T13:34:58.866Z,30.08
2023-03-04T13:38:00.901Z,65.70
2023-03-04T13:43:26.122Z,32.83
2023-03-04T13:46:03.953Z,30.73
2023-03-04T13:48:37.817Z,25.30
2023-03-04T13:51:28.676Z,29.38
2023-03-04T13:54:00.000Z,30.63
2023-03-04T13:56:46.580Z,23.38
2023-03-04T13:59:32.309Z,25.52
2023-03-04T14:02:15.303Z,23.40
2023-03-04T14:04:48.139Z,22.83
2023-03-04T14:07:38.742Z,22.67
2023-03-04T14:10:26.548Z,24.67
2023-03-04T14:13:04.613Z,26.48
2023-03-04T14:15:38.413Z,24.80
2023-03-04T14:18:12.277Z,20.10
2023-03-04T14:20:49.831Z,22.30
2023-03-04T14:23:34.895Z,18.55
2023-03-04T14:26:16.434Z,20.10
2023-03-04T14:28:52.776Z,17.50
2023-03-04T14:31:29.567Z,17.20
2023-03-04T14:34:10.152Z,18.33
2023-03-04T14:36:38.191Z,17.98
2023-03-04T14:39:07.361Z,17.25
2023-03-04T14:41:39.449Z,15.15
2023-03-04T14:44:27.194Z,14.93
2023-03-04T14:47:08.285Z,16.35
2023-03-04T14:49:39.997Z,16.05
2023-03-04T14:52:28.851Z,14.40
2023-03-04T14:55:07.888Z,15.18
2023-03-04T14:57:38.748Z,13.90
2023-03-04T15:00:51.576Z,14.53
2023-03-04T15:03:36.249Z,14.20
2023-03-04T15:06:29.600Z,16.10
2023-03-04T15:09:01.895Z,14.35
2023-03-04T15:11:55.076Z,16.73
2023-03-04T15:14:44.636Z,13.75
2023-03-04T15:17:43.214Z,15.35
2023-03-04T15:20:19.728Z,17.42
2023-03-04T15:22:49.971Z,15.95
2023-03-04T15:25:24.938Z,15.93
2023-03-04T15:28:07.934Z,17.08
2023-03-04T15:30:38.360Z,15.13
2023-03-04T15:33:14.033Z,14.48
2023-03-04T15:36:14.218Z,13.50
2023-03-04T15:38:44.733Z,14.73
2023-03-04T15:41:13.904Z,14.10
2023-03-04T15:43:41.292Z,15.02
2023-03-04T15:46:11.428Z,13.73
2023-03-04T15:48:38.784Z,15.00
2023-03-04T15:54:01.409Z,14.02
2023-03-04T15:56:31.845Z,14.20
2023-03-04T15:59:27.961Z,18.30
2023-03-04T16:01:59.516Z,17.15
2023-03-04T16:04:26.933Z,18.23
2023-03-04T16:06:58.520Z,16.95
2023-03-04T16:09:26.479Z,17.17
2023-03-04T16:11:56.431Z,21.52
2023-03-04T16:14:23.682Z,19.90
2023-03-04T16:16:53.616Z,17.70
2023-03-04T16:19:20.904Z,17.10
2023-03-04T16:21:48.209Z,15.30
2023-03-04T16:24:20.361Z,21.15
2023-03-04T16:26:48.489Z,16.60
2023-03-04T16:29:17.962Z,17.88
2023-03-04T16:31:45.200Z,15.35
2023-03-04T16:34:12.600Z,17.42
2023-03-04T16:36:42.362Z,14.95
2023-03-04T16:39:21.231Z,15.50
2023-03-04T16:41:51.658Z,17.83
2023-03-04T16:44:18.941Z,15.65
2023-03-04T16:46:46.254Z,15.23
2023-03-04T16:49:15.723Z,17.33
2023-03-04T16:51:49.830Z,16.65
2023-03-04T16:54:28.060Z,15.77
2023-03-04T16:56:55.275Z,17.50
2023-03-04T16:59:22.856Z,17.95
2023-03-04T17:01:53.746Z,16.80
2023-03-04T17:04:21.498Z,18.33
2023-03-04T17:06:48.918Z,15.98
2023-03-04T17:09:18.551Z,16.45
2023-03-04T17:11:46.242Z,17.50
2023-03-04T17:14:13.568Z,17.85
2023-03-04T17:16:40.793Z,18.73
2023-03-04T17:19:08.122Z,16.73
2023-03-04T17:21:35.478Z,17.23
2023-03-04T17:24:03.442Z,18.17
2023-03-04T17:26:32.046Z,16.80
2023-03-04T17:29:01.632Z,20.70
2023-03-04T17:31:29.151Z,17.42
2023-03-04T17:33:57.334Z,17.42
2023-03-04T17:36:24.884Z,20.50
2023-03-04T17:38:52.256Z,16.60
2023-03-04T17:41:20.872Z,18.80
2023-03-04T17:43:50.874Z,21.50
2023-03-04T17:46:21.102Z,19.15
2023-03-04T17:48:53.041Z,23.85
2023-03-04T17:51:20.271Z,19.85
2023-03-04T17:53:49.980Z,19.20
2023-03-04T17:56:17.229Z,19.38
2023-03-04T17:58:44.547Z,20.80
2023-03-04T18:01:17.594Z,20.92
2023-03-04T18:03:47.411Z,21.70
2023-03-04T18:06:14.932Z,20.30
2023-03-04T18:08:42.159Z,24.10
2023-03-04T18:11:09.997Z,23.42
2023-03-04T18:13:42.159Z,23.23
2023-03-04T18:16:11.803Z,24.02
2023-03-04T18:18:39.066Z,19.85
2023-03-04T18:21:06.516Z,23.27
2023-03-04T18:23:33.792Z,21.40
2023-03-04T18:26:02.507Z,22.40
2023-03-04T18:28:29.964Z,23.00
2023-03-04T18:31:00.984Z,23.23
2023-03-04T18:33:29.300Z,24.00
2023-03-04T18:36:05.592Z,21.02
2023-03-04T18:38:33.205Z,24.23
2023-03-04T18:41:02.634Z,21.23
2023-03-04T18:43:33.810Z,20.25
2023-03-04T18:46:11.704Z,22.42
2023-03-04T18:48:54.334Z,22.80
2023-03-04T18:51:21.931Z,22.60
2023-03-04T18:53:51.532Z,21.10
2023-03-04T18:56:31.572Z,21.92
2023-03-04T18:59:01.097Z,23.10
2023-03-04T19:01:30.527Z,22.98
2023-03-04T19:03:59.333Z,21.48
2023-03-04T19:06:26.647Z,23.48
2023-03-04T19:08:55.309Z,23.48
2023-03-04T19:11:25.531Z,22.08
2023-03-04T19:13:55.122Z,23.50
2023-03-04T19:16:22.564Z,22.23
2023-03-04T19:18:49.851Z,20.65
2023-03-04T19:21:21.833Z,25.13
2023-03-04T19:23:49.172Z,23.08
2023-03-04T19:26:19.023Z,22.48
2023-03-04T19:28:46.289Z,22.35
2023-03-04T19:31:13.964Z,21.17
2023-03-04T19:33:41.610Z,23.02
2023-03-04T19:36:09.912Z,21.92
2023-03-04T19:38:37.821Z,22.00
2023-03-04T19:41:13.926Z,22.30
2023-03-04T19:43:43.774Z,22.63
2023-03-04T19:46:11.854Z,21.63
2023-03-04T19:48:40.224Z,23.30
2023-03-04T19:51:19.191Z,24.17
2023-03-04T19:53:50.828Z,22.80
2023-03-04T19:56:19.633Z,21.50
2023-03-04T19:58:48.285Z,24.52
2023-03-04T20:01:25.472Z,21.52
2023-03-04T20:03:52.912Z,19.73
2023-03-04T20:06:20.180Z,22.88
2023-03-04T20:08:50.806Z,21.75
2023-03-04T20:11:20.493Z,22.10
2023-03-04T20:13:47.773Z,23.75
2023-03-04T20:16:15.172Z,24.13
2023-03-04T20:18:42.923Z,26.60
2023-03-04T20:21:10.988Z,22.58
2023-03-04T20:23:40.496Z,22.23
2023-03-04T20:26:07.869Z,28.33
2023-03-04T20:28:37.394Z,30.27
2023-03-04T20:31:18.344Z,26.15
2023-03-04T20:33:49.593Z,24.13
2023-03-04T20:36:18.677Z,21.98
2023-03-04T20:38:48.871Z,22.88
2023-03-04T20:41:20.867Z,21.35
2023-03-04T20:43:48.225Z,21.52
2023-03-04T20:46:27.827Z,26.17
2023-03-04T20:48:57.020Z,21.25
2023-03-04T20:51:27.523Z,21.85
2023-03-04T20:53:55.422Z,28.85
2023-03-04T20:56:23.628Z,27.80
2023-03-04T20:58:52.315Z,25.30
2023-03-04T21:01:19.999Z,20.98
2023-03-04T21:03:52.449Z,21.38
2023-03-04T21:06:19.774Z,23.33
2023-03-04T21:08:47.146Z,22.00
2023-03-04T21:11:15.770Z,23.85
2023-03-04T21:13:43.517Z,22.95
2023-03-04T21:16:12.949Z,23.23
2023-03-04T21:18:43.974Z,20.65
2023-03-04T21:21:19.103Z,21.85
2023-03-04T21:23:46.564Z,19.42
2023-03-04T21:26:13.790Z,19.85
2023-03-04T21:28:42.014Z,21.63
2023-03-04T21:31:17.841Z,23.13
2023-03-04T21:33:46.387Z,23.85
2023-03-04T21:36:14.084Z,21.48
2023-03-04T21:38:42.851Z,20.70
2023-03-04T21:41:19.516Z,22.63
2023-03-04T21:43:47.252Z,22.13
2023-03-04T21:46:18.086Z,22.65
2023-03-04T21:48:47.567Z,22.30
2023-03-04T21:51:16.685Z,22.27
2023-03-04T21:53:44.108Z,20.90
2023-03-04T21:56:12.787Z,20.80
2023-03-04T21:58:43.186Z,21.83
2023-03-04T22:01:18.493Z,21.48
2023-03-04T22:03:48.880Z,21.05
2023-03-04T22:06:24.240Z,22.98
2023-03-04T22:08:52.668Z,21.50
2023-03-04T22:11:22.110Z,23.77
2023-03-04T22:13:54.778Z,22.77
2023-03-04T22:16:24.171Z,22.40
2023-03-04T22:18:51.515Z,21.13
2023-03-04T22:21:22.057Z,21.45
2023-03-04T22:23:49.408Z,22.92
2023-03-04T22:26:19.607Z,21.00
2023-03-04T22:28:49.324Z,22.30
2023-03-04T22:31:20.349Z,23.15
2023-03-04T22:33:47.941Z,21.25
2023-03-04T22:36:15.827Z,23.80
2023-03-04T22:38:45.464Z,20.90
2023-03-04T22:41:17.836Z,22.40
2023-03-04T22:43:46.003Z,25.55
2023-03-04T22:46:21.361Z,21.67
2023-03-04T22:48:50.013Z,21.17
2023-03-04T22:51:20.745Z,22.67
2023-03-04T22:53:51.940Z,21.27
2023-03-04T22:56:20.208Z,23.65
2023-03-04T22:58:50.666Z,26.13
2023-03-04T23:01:19.092Z,22.58
2023-03-04T23:03:48.684Z,24.40
2023-03-04T23:06:17.997Z,22.38
2023-03-04T23:08:47.242Z,22.35
2023-03-04T23:11:23.639Z,24.67
2023-03-04T23:13:51.389Z,23.70
2023-03-04T23:16:21.676Z,22.83
2023-03-04T23:18:51.841Z,24.30
2023-03-04T23:21:22.454Z,23.73
2023-03-04T23:23:50.215Z,24.38
2023-03-04T23:26:20.014Z,23.15
2023-03-04T23:28:47.698Z,27.27
2023-03-04T23:31:15.487Z,26.48
2023-03-04T23:33:46.521Z,25.77
2023-03-04T23:36:16.231Z,26.73
2023-03-04T23:38:45.382Z,27.23
2023-03-04T23:41:18.628Z,26.27
2023-03-04T23:43:46.451Z,24.92
2023-03-04T23:46:15.270Z,23.02
2023-03-04T23:48:46.255Z,24.67
2023-03-04T23:51:21.388Z,23.08
2023-03-04T23:53:48.725Z,21.23
2023-03-04T23:56:19.153Z,24.98
2023-03-04T23:58:46.607Z,21.08
